createdAt,value
2019-04-06T00:02:17.710Z,6.80
2019-04-06T00:04:48.093Z,6.90
2019-04-06T00:07:18.514Z,6.80
2019-04-06T00:09:48.898Z,6.60
2019-04-06T00:12:19.249Z,6.40
2019-04-06T00:14:49.614Z,6.40
2019-04-06T00:17:19.999Z,6.40
2019-04-06T00:19:50.400Z,6.30
2019-04-06T00:22:20.770Z,6.20
2019-04-06T00:24:51.137Z,6.20
2019-04-06T00:27:21.486Z,6.20
2019-04-06T00:29:51.865Z,6.30
2019-04-06T00:32:53.557Z,6.40
2019-04-06T00:35:23.956Z,6.50
2019-04-06T00:37:54.330Z,6.50
2019-04-06T00:40:24.709Z,6.60
2019-04-06T00:42:55.060Z,6.70
2019-04-06T00:45:25.444Z,6.70
2019-04-06T00:47:55.902Z,6.50
2019-04-06T00:50:26.322Z,6.50
2019-04-06T00:52:56.810Z,6.50
2019-04-06T00:55:27.209Z,6.60
2019-04-06T00:57:57.573Z,6.50
2019-04-06T01:00:27.959Z,6.60
2019-04-06T01:02:58.326Z,6.50
2019-04-06T01:05:28.729Z,6.40
2019-04-06T01:07:59.106Z,6.30
2019-04-06T01:10:29.456Z,6.20
2019-04-06T01:12:59.849Z,6.20
2019-04-06T01:15:30.250Z,6.40
2019-04-06T01:18:00.618Z,6.50
2019-04-06T01:20:31.014Z,6.50
2019-04-06T01:23:01.389Z,6.60
2019-04-06T01:25:31.786Z,6.60
2019-04-06T01:28:02.181Z,6.40
2019-04-06T01:30:32.588Z,6.20
2019-04-06T01:33:03.016Z,6.10
2019-04-06T01:35:33.393Z,5.90
2019-04-06T01:38:03.781Z,6.00
2019-04-06T01:40:34.249Z,6.00
2019-04-06T01:43:04.703Z,6.00
2019-04-06T01:45:35.102Z,5.90
2019-04-06T01:48:05.564Z,5.80
2019-04-06T01:50:36.017Z,5.70
2019-04-06T01:53:06.444Z,5.70
2019-04-06T01:55:37.325Z,5.70
2019-04-06T01:58:07.710Z,5.70
2019-04-06T02:00:40.376Z,5.60
2019-04-06T02:03:10.754Z,5.60
2019-04-06T02:05:41.094Z,5.60
2019-04-06T02:08:11.550Z,5.50
2019-04-06T02:10:41.988Z,5.50
2019-04-06T02:13:12.364Z,5.50
2019-04-06T02:15:42.702Z,5.50
2019-04-06T02:18:13.098Z,5.50
2019-04-06T02:20:43.478Z,5.40
2019-04-06T02:23:13.858Z,5.40
2019-04-06T02:25:44.226Z,5.30
2019-04-06T02:28:14.602Z,5.30
2019-04-06T02:31:07.015Z,5.30
2019-04-06T02:33:55.280Z,5.20
2019-04-06T02:36:53.846Z,5.30
2019-04-06T02:39:38.529Z,5.20
2019-04-06T02:42:14.049Z,5.10
2019-04-06T02:44:44.501Z,5.20
2019-04-06T02:47:14.942Z,5.20
2019-04-06T02:49:45.365Z,5.20
2019-04-06T02:52:15.769Z,5.10
2019-04-06T02:54:46.226Z,5.20
2019-04-06T02:57:16.698Z,5.00
2019-04-06T02:59:47.146Z,5.00
2019-04-06T03:02:17.536Z,5.10
2019-04-06T03:04:47.947Z,5.10
2019-04-06T03:07:18.331Z,5.10
2019-04-06T03:09:48.782Z,5.00
2019-04-06T03:12:19.178Z,4.90
2019-04-06T03:14:49.606Z,4.80
2019-04-06T03:17:20.049Z,4.70
2019-04-06T03:19:50.519Z,4.70
2019-04-06T03:22:20.914Z,4.70
2019-04-06T03:24:51.334Z,4.70
2019-04-06T03:27:21.787Z,4.70
2019-04-06T03:29:58.325Z,4.70
2019-04-06T03:32:24.389Z,4.60
2019-04-06T03:34:54.828Z,4.40
2019-04-06T03:37:25.328Z,4.30
2019-04-06T03:39:55.786Z,4.40
2019-04-06T03:42:26.182Z,4.50
2019-04-06T03:44:56.543Z,4.40
2019-04-06T03:47:27.106Z,4.40
2019-04-06T03:49:57.515Z,4.30
2019-04-06T03:52:27.946Z,4.30
2019-04-06T03:54:58.393Z,4.50
2019-04-06T03:57:28.819Z,4.40
2019-04-06T03:59:59.385Z,4.30
2019-04-06T04:02:29.983Z,4.30
2019-04-06T04:05:00.352Z,4.20
2019-04-06T04:07:30.714Z,4.20
2019-04-06T04:10:01.083Z,4.20
2019-04-06T04:12:31.501Z,4.20
2019-04-06T04:15:02.001Z,4.30
2019-04-06T04:17:32.761Z,4.40
2019-04-06T04:20:03.410Z,4.50
2019-04-06T04:22:35.020Z,4.40
2019-04-06T04:25:06.210Z,4.50
2019-04-06T04:27:40.791Z,4.40
2019-04-06T04:30:11.313Z,4.50
2019-04-06T04:32:41.708Z,4.50
2019-04-06T04:35:12.118Z,4.50
2019-04-06T04:37:42.784Z,4.40
2019-04-06T04:40:13.325Z,4.40
2019-04-06T04:42:43.706Z,4.30
2019-04-06T04:45:14.158Z,4.20
2019-04-06T04:47:44.592Z,4.30
2019-04-06T04:50:14.999Z,4.20
2019-04-06T04:52:45.379Z,4.20
2019-04-06T04:55:15.806Z,4.10
2019-04-06T04:57:46.258Z,4.20
2019-04-06T05:00:20.007Z,4.30
2019-04-06T05:02:50.387Z,4.30
2019-04-06T05:05:20.796Z,4.40
2019-04-06T05:07:51.177Z,4.40
2019-04-06T05:10:21.629Z,4.30
2019-04-06T05:12:52.180Z,4.40
2019-04-06T05:15:50.237Z,4.20
2019-04-06T05:18:20.600Z,4.10
2019-04-06T05:20:51.032Z,4.00
2019-04-06T05:23:21.400Z,4.20
2019-04-06T05:25:52.142Z,4.20
2019-04-06T05:28:22.589Z,4.20
2019-04-06T05:30:52.969Z,4.10
2019-04-06T05:33:23.332Z,3.90
2019-04-06T05:35:54.111Z,3.80
2019-04-06T05:38:24.506Z,4.00
2019-04-06T05:40:54.929Z,4.10
2019-04-06T05:43:25.333Z,4.10
2019-04-06T05:45:55.739Z,4.20
2019-04-06T05:48:26.155Z,4.20
2019-04-06T05:50:56.561Z,4.20
2019-04-06T05:53:27.224Z,4.00
2019-04-06T05:55:57.614Z,4.10
2019-04-06T05:58:28.230Z,4.10
2019-04-06T06:00:58.851Z,4.00
2019-04-06T06:03:29.214Z,4.10
2019-04-06T06:05:59.634Z,4.10
2019-04-06T06:08:30.578Z,4.20
2019-04-06T06:11:01.082Z,4.30
2019-04-06T06:13:31.659Z,4.50
2019-04-06T06:16:02.168Z,4.60
2019-04-06T06:18:32.636Z,4.80
2019-04-06T06:21:03.055Z,5.10
2019-04-06T06:23:33.447Z,5.30
2019-04-06T06:26:03.931Z,5.60
2019-04-06T06:28:34.409Z,5.70
2019-04-06T06:31:04.880Z,6.00
2019-04-06T06:33:35.292Z,6.20
2019-04-06T06:36:05.827Z,6.30
2019-04-06T06:38:36.209Z,6.30
2019-04-06T06:41:06.579Z,6.40
2019-04-06T06:43:37.047Z,6.50
2019-04-06T06:46:07.492Z,6.60
2019-04-06T06:48:37.890Z,6.70
2019-04-06T06:51:08.256Z,6.80
2019-04-06T06:53:38.662Z,7.00
2019-04-06T06:56:09.041Z,7.00
2019-04-06T06:58:39.442Z,7.30
2019-04-06T07:01:09.855Z,7.30
2019-04-06T07:03:40.243Z,7.50
2019-04-06T07:06:10.646Z,7.60
2019-04-06T07:08:41.063Z,7.60
2019-04-06T07:11:12.460Z,7.80
2019-04-06T07:13:44.997Z,8.10
2019-04-06T07:16:16.941Z,8.40
2019-04-06T07:18:54.368Z,8.70
2019-04-06T07:21:24.805Z,8.90
2019-04-06T07:23:55.217Z,9.10
2019-04-06T07:26:25.607Z,9.20
2019-04-06T07:28:56.022Z,9.30
2019-04-06T07:31:26.444Z,9.40
2019-04-06T07:33:56.880Z,9.50
2019-04-06T07:36:27.313Z,9.70
2019-04-06T07:38:57.721Z,9.80
2019-04-06T07:41:28.132Z,10.10
2019-04-06T07:43:58.554Z,10.00
2019-04-06T07:46:28.986Z,10.00
2019-04-06T07:49:07.914Z,10.10
2019-04-06T07:51:31.517Z,10.20
2019-04-06T07:54:01.939Z,10.30
2019-04-06T07:56:34.790Z,10.50
2019-04-06T07:59:05.164Z,10.60
2019-04-06T08:01:38.290Z,10.70
2019-04-06T08:04:08.698Z,11.10
2019-04-06T08:06:39.187Z,11.40
2019-04-06T08:09:10.034Z,11.60
2019-04-06T08:11:40.490Z,11.90
2019-04-06T08:14:10.890Z,12.20
2019-04-06T08:16:41.275Z,12.40
2019-04-06T08:19:11.694Z,12.60
2019-04-06T08:21:42.348Z,12.80
2019-04-06T08:24:12.907Z,13.10
2019-04-06T08:26:46.030Z,12.80
2019-04-06T08:29:15.697Z,12.90
2019-04-06T08:31:46.130Z,13.00
2019-04-06T08:34:16.533Z,12.80
2019-04-06T08:36:46.949Z,12.80
2019-04-06T08:39:17.389Z,12.80
2019-04-06T08:41:47.791Z,12.70
2019-04-06T08:44:18.173Z,12.50
2019-04-06T08:46:48.596Z,12.60
2019-04-06T08:49:18.976Z,12.70
2019-04-06T08:51:49.424Z,12.80
2019-04-06T08:54:19.849Z,12.90
2019-04-06T08:56:50.292Z,12.70
2019-04-06T08:59:20.687Z,12.80
2019-04-06T09:01:51.090Z,12.90
2019-04-06T09:04:21.489Z,13.10
2019-04-06T09:06:52.174Z,13.00
2019-04-06T09:09:22.600Z,13.00
2019-04-06T09:11:53.061Z,13.00
2019-04-06T09:14:23.506Z,12.90
2019-04-06T09:16:53.903Z,12.80
2019-04-06T09:19:24.368Z,12.80
2019-04-06T09:21:54.752Z,12.60
2019-04-06T09:24:25.213Z,12.70
2019-04-06T09:26:55.674Z,12.80
2019-04-06T09:29:26.197Z,12.90
2019-04-06T09:31:56.709Z,13.10
2019-04-06T09:34:27.114Z,13.30
2019-04-06T09:36:57.537Z,13.60
2019-04-06T09:39:28.193Z,13.60
2019-04-06T09:41:58.635Z,13.70
2019-04-06T09:45:00.326Z,13.50
2019-04-06T09:47:39.496Z,13.70
2019-04-06T09:50:35.062Z,13.90
2019-04-06T09:53:27.166Z,13.90
2019-04-06T09:56:04.367Z,13.70
2019-04-06T09:58:56.585Z,13.60
2019-04-06T10:01:47.690Z,13.70
2019-04-06T10:04:43.228Z,13.40
2019-04-06T10:07:31.324Z,13.30
2019-04-06T10:10:26.756Z,13.40
2019-04-06T10:13:14.886Z,13.10
2019-04-06T10:16:00.170Z,13.10
2019-04-06T10:18:49.643Z,13.10
2019-04-06T10:21:44.795Z,13.00
2019-04-06T10:24:40.279Z,13.20
2019-04-06T10:27:28.316Z,13.40
2019-04-06T10:30:26.843Z,13.80
2019-04-06T10:33:19.323Z,14.10
2019-04-06T10:36:00.850Z,14.40
2019-04-06T10:39:02.259Z,14.70
2019-04-06T10:42:07.112Z,14.90
2019-04-06T10:45:00.492Z,15.20
2019-04-06T10:47:53.231Z,15.30
2019-04-06T10:50:51.773Z,15.10
2019-04-06T10:53:39.892Z,15.00
2019-04-06T10:56:38.617Z,14.90
2019-04-06T10:59:27.975Z,14.90
2019-04-06T11:02:16.138Z,14.70
2019-04-06T11:04:51.713Z,14.60
2019-04-06T11:07:47.147Z,14.30
2019-04-06T11:10:25.794Z,14.40
2019-04-06T11:13:14.065Z,14.40
2019-04-06T11:15:55.663Z,14.20
2019-04-06T11:18:44.069Z,14.10
2019-04-06T11:21:32.093Z,13.90
2019-04-06T11:24:21.531Z,13.50
2019-04-06T11:26:58.449Z,13.20
2019-04-06T11:29:54.298Z,13.20
2019-04-06T11:32:36.688Z,13.20
2019-04-06T11:35:14.616Z,13.20
2019-04-06T11:37:57.662Z,12.90
2019-04-06T11:40:54.393Z,13.00
2019-04-06T11:43:31.221Z,12.80
2019-04-06T11:46:20.731Z,12.80
2019-04-06T11:49:04.672Z,12.80
2019-04-06T11:51:49.693Z,12.90
2019-04-06T11:54:29.974Z,12.90
2019-04-06T11:57:08.284Z,12.80
2019-04-06T11:59:47.513Z,12.90
2019-04-06T12:02:49.504Z,12.90
2019-04-06T12:05:41.760Z,12.90
2019-04-06T12:08:30.262Z,12.90
2019-04-06T12:11:31.855Z,12.90
2019-04-06T12:14:11.548Z,12.90
2019-04-06T12:16:48.455Z,12.90
2019-04-06T12:19:44.024Z,12.90
2019-04-06T12:22:50.555Z,12.90
2019-04-06T12:25:40.237Z,13.10
2019-04-06T12:28:21.959Z,13.20
2019-04-06T12:31:14.430Z,13.10
2019-04-06T12:34:13.442Z,13.00
2019-04-06T12:36:58.006Z,13.10
2019-04-06T12:39:53.082Z,12.90
2019-04-06T12:42:46.844Z,13.10
2019-04-06T12:45:39.545Z,13.30
2019-04-06T12:48:27.769Z,13.40
2019-04-06T12:51:20.486Z,13.50
2019-04-06T12:54:13.008Z,13.40
2019-04-06T12:56:53.520Z,13.60
2019-04-06T12:59:34.715Z,14.00
2019-04-06T13:02:18.130Z,14.00
2019-04-06T13:05:06.604Z,14.00
2019-04-06T13:07:54.957Z,14.10
2019-04-06T13:10:47.051Z,14.30
2019-04-06T13:13:37.168Z,14.40
2019-04-06T13:16:17.742Z,14.60
2019-04-06T13:19:07.338Z,14.50
2019-04-06T13:21:55.761Z,14.50
2019-04-06T13:25:00.419Z,14.30
2019-04-06T13:27:52.696Z,14.30
2019-04-06T13:30:45.215Z,14.40
2019-04-06T13:33:33.220Z,14.30
2019-04-06T13:36:34.774Z,14.20
2019-04-06T13:39:26.918Z,14.20
2019-04-06T13:42:31.780Z,14.40
2019-04-06T13:45:33.309Z,14.40
2019-04-06T13:48:18.020Z,14.50
2019-04-06T13:50:59.566Z,14.60
2019-04-06T13:53:49.010Z,14.70
2019-04-06T13:56:44.651Z,14.80
2019-04-06T13:59:21.408Z,14.90
2019-04-06T14:02:02.298Z,15.00
2019-04-06T14:04:48.118Z,15.00
2019-04-06T14:07:41.191Z,15.00
2019-04-06T14:10:24.387Z,15.10
2019-04-06T14:13:12.571Z,15.20
2019-04-06T14:16:07.970Z,15.20
2019-04-06T14:19:12.685Z,15.20
2019-04-06T14:21:49.760Z,15.30
2019-04-06T14:24:38.209Z,15.30
2019-04-06T14:27:27.962Z,15.30
2019-04-06T14:30:13.587Z,15.30
2019-04-06T14:33:03.153Z,15.30
2019-04-06T14:35:52.711Z,15.40
2019-04-06T14:38:54.529Z,15.40
2019-04-06T14:41:43.182Z,15.40
2019-04-06T14:44:41.818Z,15.50
2019-04-06T14:47:26.415Z,15.40
2019-04-06T14:50:22.310Z,15.30
2019-04-06T14:53:11.726Z,15.30
2019-04-06T14:56:04.667Z,15.30
2019-04-06T14:59:12.593Z,15.20
2019-04-06T15:02:02.126Z,15.20
2019-04-06T15:05:03.658Z,15.10
2019-04-06T15:07:53.125Z,15.10
2019-04-06T15:10:34.243Z,15.10
2019-04-06T15:13:35.794Z,15.00
2019-04-06T15:16:21.626Z,15.00
2019-04-06T15:19:10.971Z,14.90
2019-04-06T15:21:59.530Z,14.90
2019-04-06T15:25:07.164Z,15.00
2019-04-06T15:28:02.399Z,15.00
2019-04-06T15:31:06.944Z,15.10
2019-04-06T15:34:02.011Z,15.00
2019-04-06T15:36:54.193Z,15.00
2019-04-06T15:39:40.901Z,15.10
2019-04-06T15:42:30.407Z,15.20
2019-04-06T15:45:18.892Z,15.10
2019-04-06T15:48:08.655Z,15.30
2019-04-06T15:51:04.147Z,15.30
2019-04-06T15:54:08.951Z,15.30
2019-04-06T15:56:47.023Z,15.30
2019-04-06T15:59:36.530Z,15.20
2019-04-06T16:02:19.221Z,15.20
2019-04-06T16:04:58.213Z,15.20
2019-04-06T16:07:50.462Z,15.20
2019-04-06T16:10:34.784Z,15.30
2019-04-06T16:13:15.394Z,15.40
2019-04-06T16:16:08.250Z,15.40
2019-04-06T16:18:56.438Z,15.30
2019-04-06T16:21:52.495Z,15.30
2019-04-06T16:24:57.373Z,15.30
2019-04-06T16:27:38.806Z,15.20
2019-04-06T16:30:21.243Z,15.20
2019-04-06T16:33:01.977Z,15.20
2019-04-06T16:36:10.275Z,15.10
2019-04-06T16:39:01.179Z,15.20
2019-04-06T16:41:53.789Z,15.30
2019-04-06T16:44:52.080Z,15.30
2019-04-06T16:47:39.928Z,15.30
2019-04-06T16:50:20.948Z,15.20
2019-04-06T16:53:07.167Z,15.10
2019-04-06T16:56:08.782Z,15.10
2019-04-06T16:58:54.736Z,15.10
2019-04-06T17:01:35.485Z,15.10
2019-04-06T17:04:25.010Z,15.00
2019-04-06T17:07:26.830Z,15.00
2019-04-06T17:10:14.095Z,15.00
2019-04-06T17:13:05.321Z,14.90
2019-04-06T17:16:00.975Z,14.90
2019-04-06T17:18:50.697Z,14.80
2019-04-06T17:21:38.637Z,14.70
2019-04-06T17:24:36.249Z,14.70
2019-04-06T17:27:16.240Z,14.60
2019-04-06T17:30:23.992Z,14.50
2019-04-06T17:33:22.753Z,14.50
2019-04-06T17:36:03.435Z,14.40
2019-04-06T17:38:42.049Z,14.40
2019-04-06T17:41:50.030Z,14.40
2019-04-06T17:44:37.936Z,14.20
2019-04-06T17:47:30.246Z,14.20
2019-04-06T17:50:19.863Z,14.20
2019-04-06T17:53:02.771Z,14.20
2019-04-06T17:56:01.206Z,14.10
2019-04-06T17:58:56.789Z,14.00
2019-04-06T18:01:52.242Z,13.90
2019-04-06T18:04:33.308Z,13.80
2019-04-06T18:07:28.729Z,13.70
2019-04-06T18:10:06.533Z,13.60
2019-04-06T18:12:45.987Z,13.50
2019-04-06T18:15:16.701Z,13.40
2019-04-06T18:17:47.537Z,13.50
2019-04-06T18:20:18.445Z,13.60
2019-04-06T18:22:49.024Z,13.50
2019-04-06T18:25:19.601Z,13.40
2019-04-06T18:27:50.545Z,13.30
2019-04-06T18:30:21.356Z,13.20
2019-04-06T18:33:20.233Z,13.20
2019-04-06T18:35:50.862Z,13.10
2019-04-06T18:38:35.413Z,13.20
2019-04-06T18:41:08.064Z,13.30
2019-04-06T18:43:40.697Z,13.30
2019-04-06T18:46:11.642Z,13.30
2019-04-06T18:48:42.699Z,13.30
2019-04-06T18:51:13.272Z,13.30
2019-04-06T18:53:43.849Z,13.10
2019-04-06T18:56:14.445Z,13.00
2019-04-06T18:58:44.968Z,13.00
2019-04-06T19:01:15.648Z,12.90
2019-04-06T19:03:46.349Z,12.80
2019-04-06T19:06:16.986Z,12.70
2019-04-06T19:08:47.651Z,12.60
2019-04-06T19:11:18.190Z,12.50
2019-04-06T19:13:48.836Z,12.40
2019-04-06T19:16:19.389Z,12.40
2019-04-06T19:18:49.942Z,12.40
2019-04-06T19:21:20.600Z,12.30
2019-04-06T19:23:51.369Z,12.30
2019-04-06T19:26:22.031Z,12.20
2019-04-06T19:28:52.676Z,12.10
2019-04-06T19:31:26.059Z,12.10
2019-04-06T19:33:56.702Z,12.00
2019-04-06T19:36:27.727Z,12.00
2019-04-06T19:38:58.261Z,11.80
2019-04-06T19:41:28.909Z,11.70
2019-04-06T19:43:59.458Z,11.70
2019-04-06T19:46:30.495Z,11.60
2019-04-06T19:49:01.262Z,11.60
2019-04-06T19:51:32.028Z,11.60
2019-04-06T19:54:05.264Z,11.40
2019-04-06T19:56:34.958Z,11.40
2019-04-06T19:59:06.182Z,11.40
2019-04-06T20:01:36.733Z,11.40
2019-04-06T20:04:07.288Z,11.40
2019-04-06T20:06:37.826Z,11.40
2019-04-06T20:09:08.752Z,11.40
2019-04-06T20:11:40.017Z,11.30
2019-04-06T20:14:10.793Z,11.30
2019-04-06T20:16:41.919Z,11.00
2019-04-06T20:19:12.597Z,10.80
2019-04-06T20:21:43.158Z,10.80
2019-04-06T20:24:14.340Z,11.00
2019-04-06T20:26:45.241Z,11.00
2019-04-06T20:29:15.888Z,11.00
2019-04-06T20:31:46.491Z,11.00
2019-04-06T20:34:17.533Z,10.80
2019-04-06T20:36:48.531Z,10.70
2019-04-06T20:39:19.185Z,10.60
2019-04-06T20:41:49.856Z,10.60
2019-04-06T20:44:20.454Z,10.60
2019-04-06T20:46:50.867Z,10.60
2019-04-06T20:49:21.306Z,10.60
2019-04-06T20:51:52.265Z,10.60
2019-04-06T20:54:22.971Z,10.60
2019-04-06T20:56:57.883Z,10.40
2019-04-06T20:59:25.688Z,10.30
2019-04-06T21:01:56.177Z,10.20
2019-04-06T21:04:26.585Z,10.10
2019-04-06T21:06:56.972Z,10.00
2019-04-06T21:09:27.433Z,10.00
2019-04-06T21:11:57.797Z,10.00
2019-04-06T21:14:28.575Z,10.00
2019-04-06T21:16:59.140Z,10.10
2019-04-06T21:19:30.235Z,10.00
2019-04-06T21:22:01.313Z,10.10
2019-04-06T21:24:31.865Z,10.10
2019-04-06T21:27:02.300Z,10.00
2019-04-06T21:29:33.262Z,9.80
2019-04-06T21:32:03.769Z,9.80
2019-04-06T21:34:34.179Z,9.80
2019-04-06T21:37:05.184Z,9.80
2019-04-06T21:39:35.958Z,9.70
2019-04-06T21:42:06.450Z,9.60
2019-04-06T21:44:38.843Z,9.60
2019-04-06T21:47:09.406Z,9.60
2019-04-06T21:49:39.896Z,9.60
2019-04-06T21:52:10.296Z,9.50
2019-04-06T21:54:40.979Z,9.60
2019-04-06T21:57:11.525Z,9.50
2019-04-06T21:59:42.111Z,9.50
2019-04-06T22:02:12.527Z,9.50
2019-04-06T22:04:42.982Z,9.50
2019-04-06T22:07:14.143Z,9.50
2019-04-06T22:09:44.616Z,9.50
2019-04-06T22:12:15.145Z,9.30
2019-04-06T22:14:46.076Z,9.40
2019-04-06T22:17:16.712Z,9.40
2019-04-06T22:19:47.256Z,9.50
2019-04-06T22:22:18.017Z,9.30
2019-04-06T22:24:48.495Z,9.30
2019-04-06T22:27:18.945Z,9.30
2019-04-06T22:29:49.866Z,9.20
2019-04-06T22:32:21.290Z,9.10
2019-04-06T22:34:52.060Z,9.00
2019-04-06T22:37:22.561Z,9.00
2019-04-06T22:39:53.502Z,8.90
2019-04-06T22:42:23.985Z,8.80
2019-04-06T22:44:54.470Z,8.70
2019-04-06T22:47:25.322Z,8.70
2019-04-06T22:49:55.900Z,8.60
2019-04-06T22:52:26.346Z,8.70
2019-04-06T22:54:56.879Z,8.80
2019-04-06T22:57:27.304Z,8.80
2019-04-06T23:00:00.804Z,8.60
2019-04-06T23:02:37.266Z,8.70
2019-04-06T23:05:22.799Z,8.70
2019-04-06T23:07:53.469Z,8.50
2019-04-06T23:10:23.922Z,8.50
2019-04-06T23:12:54.276Z,8.60
2019-04-06T23:15:24.785Z,8.50
2019-04-06T23:17:55.533Z,8.50
2019-04-06T23:20:26.683Z,8.60
2019-04-06T23:22:57.265Z,8.50
2019-04-06T23:25:27.946Z,8.50
2019-04-06T23:27:58.438Z,8.50
2019-04-06T23:30:29.220Z,8.40
2019-04-06T23:32:59.739Z,8.60
2019-04-06T23:35:30.097Z,8.50
2019-04-06T23:38:00.703Z,8.50
2019-04-06T23:40:31.186Z,8.50
2019-04-06T23:43:01.810Z,8.50
2019-04-06T23:45:32.362Z,8.40
2019-04-06T23:48:02.815Z,8.40
2019-04-06T23:50:33.221Z,8.40
2019-04-06T23:53:04.200Z,8.50
2019-04-06T23:55:35.335Z,8.30
2019-04-06T23:58:05.813Z,8.30
